sensor_id;sensor_type;location;lat;lon;timestamp;P1;durP1;ratioP1;P2;durP2;ratioP2
68250;SDS011;55066;51.560;4.642;2024-01-25T00:01:39;14.93;;;2.33;;
68250;SDS011;55066;51.560;4.642;2024-01-25T00:04:04;11.97;;;2.27;;
68250;SDS011;55066;51.560;4.642;2024-01-25T00:06:30;26.47;;;2.60;;
68250;SDS011;55066;51.560;4.642;2024-01-25T00:08:55;22.42;;;3.10;;
68250;SDS011;55066;51.560;4.642;2024-01-25T00:11:21;18.05;;;2.55;;
68250;SDS011;55066;51.560;4.642;2024-01-25T00:13:46;20.20;;;3.10;;
68250;SDS011;55066;51.560;4.642;2024-01-25T00:16:12;21.15;;;3.22;;
68250;SDS011;55066;51.560;4.642;2024-01-25T00:18:39;25.88;;;3.35;;
68250;SDS011;55066;51.560;4.642;2024-01-25T00:21:04;25.33;;;3.00;;
68250;SDS011;55066;51.560;4.642;2024-01-25T00:23:30;21.87;;;2.90;;
68250;SDS011;55066;51.560;4.642;2024-01-25T00:25:55;21.30;;;3.07;;
68250;SDS011;55066;51.560;4.642;2024-01-25T00:28:24;24.63;;;3.40;;
68250;SDS011;55066;51.560;4.642;2024-01-25T00:30:50;19.58;;;2.50;;
68250;SDS011;55066;51.560;4.642;2024-01-25T00:33:15;23.37;;;2.37;;
68250;SDS011;55066;51.560;4.642;2024-01-25T00:35:40;19.97;;;2.87;;
68250;SDS011;55066;51.560;4.642;2024-01-25T00:38:06;20.38;;;2.45;;
68250;SDS011;55066;51.560;4.642;2024-01-25T00:40:34;26.75;;;3.05;;
68250;SDS011;55066;51.560;4.642;2024-01-25T00:42:59;15.07;;;2.10;;
68250;SDS011;55066;51.560;4.642;2024-01-25T00:45:26;10.88;;;1.60;;
68250;SDS011;55066;51.560;4.642;2024-01-25T00:47:51;30.52;;;2.85;;
68250;SDS011;55066;51.560;4.642;2024-01-25T00:50:17;17.03;;;2.27;;
68250;SDS011;55066;51.560;4.642;2024-01-25T00:52:46;15.45;;;2.33;;
68250;SDS011;55066;51.560;4.642;2024-01-25T00:55:14;20.35;;;2.13;;
68250;SDS011;55066;51.560;4.642;2024-01-25T00:57:40;23.50;;;2.70;;
68250;SDS011;55066;51.560;4.642;2024-01-25T01:00:06;20.77;;;2.40;;
68250;SDS011;55066;51.560;4.642;2024-01-25T01:02:39;21.13;;;2.70;;
68250;SDS011;55066;51.560;4.642;2024-01-25T01:05:07;20.33;;;2.35;;
68250;SDS011;55066;51.560;4.642;2024-01-25T01:07:34;12.02;;;2.35;;
68250;SDS011;55066;51.560;4.642;2024-01-25T01:09:59;17.17;;;2.47;;
68250;SDS011;55066;51.560;4.642;2024-01-25T01:12:25;21.80;;;2.53;;
68250;SDS011;55066;51.560;4.642;2024-01-25T01:14:50;18.40;;;2.60;;
68250;SDS011;55066;51.560;4.642;2024-01-25T01:17:16;18.00;;;2.72;;
68250;SDS011;55066;51.560;4.642;2024-01-25T01:19:43;15.73;;;2.47;;
68250;SDS011;55066;51.560;4.642;2024-01-25T01:22:09;15.57;;;2.17;;
68250;SDS011;55066;51.560;4.642;2024-01-25T01:24:34;20.27;;;2.83;;
68250;SDS011;55066;51.560;4.642;2024-01-25T01:27:00;17.35;;;2.20;;
68250;SDS011;55066;51.560;4.642;2024-01-25T01:29:25;14.47;;;2.50;;
68250;SDS011;55066;51.560;4.642;2024-01-25T01:31:51;13.57;;;2.00;;
68250;SDS011;55066;51.560;4.642;2024-01-25T01:34:16;16.67;;;2.43;;
68250;SDS011;55066;51.560;4.642;2024-01-25T01:36:43;14.18;;;2.33;;
68250;SDS011;55066;51.560;4.642;2024-01-25T01:39:08;16.60;;;2.20;;
68250;SDS011;55066;51.560;4.642;2024-01-25T01:41:34;21.27;;;3.10;;
68250;SDS011;55066;51.560;4.642;2024-01-25T01:43:59;24.08;;;2.40;;
68250;SDS011;55066;51.560;4.642;2024-01-25T01:46:32;17.17;;;2.37;;
68250;SDS011;55066;51.560;4.642;2024-01-25T01:49:12;17.48;;;2.50;;
68250;SDS011;55066;51.560;4.642;2024-01-25T01:51:39;15.18;;;2.67;;
68250;SDS011;55066;51.560;4.642;2024-01-25T01:54:06;14.97;;;2.20;;
68250;SDS011;55066;51.560;4.642;2024-01-25T01:56:32;15.73;;;2.58;;
68250;SDS011;55066;51.560;4.642;2024-01-25T01:58:59;11.68;;;1.98;;
68250;SDS011;55066;51.560;4.642;2024-01-25T02:01:25;17.33;;;2.00;;
68250;SDS011;55066;51.560;4.642;2024-01-25T02:03:52;16.85;;;2.50;;
68250;SDS011;55066;51.560;4.642;2024-01-25T02:06:18;15.85;;;2.25;;
68250;SDS011;55066;51.560;4.642;2024-01-25T02:08:45;16.15;;;2.13;;
68250;SDS011;55066;51.560;4.642;2024-01-25T02:11:13;12.68;;;2.63;;
68250;SDS011;55066;51.560;4.642;2024-01-25T02:13:40;18.00;;;2.35;;
68250;SDS011;55066;51.560;4.642;2024-01-25T02:16:06;9.73;;;2.13;;
68250;SDS011;55066;51.560;4.642;2024-01-25T02:18:33;16.23;;;2.75;;
68250;SDS011;55066;51.560;4.642;2024-01-25T02:20:58;19.27;;;2.50;;
68250;SDS011;55066;51.560;4.642;2024-01-25T02:23:24;16.52;;;1.80;;
68250;SDS011;55066;51.560;4.642;2024-01-25T02:25:49;12.77;;;2.10;;
68250;SDS011;55066;51.560;4.642;2024-01-25T02:28:15;19.50;;;2.20;;
68250;SDS011;55066;51.560;4.642;2024-01-25T02:30:40;12.02;;;2.10;;
68250;SDS011;55066;51.560;4.642;2024-01-25T02:33:06;12.00;;;1.77;;
68250;SDS011;55066;51.560;4.642;2024-01-25T02:35:31;10.70;;;1.70;;
68250;SDS011;55066;51.560;4.642;2024-01-25T02:37:57;11.68;;;1.73;;
68250;SDS011;55066;51.560;4.642;2024-01-25T02:40:22;11.10;;;1.70;;
68250;SDS011;55066;51.560;4.642;2024-01-25T02:42:48;15.67;;;2.20;;
68250;SDS011;55066;51.560;4.642;2024-01-25T02:45:13;18.33;;;2.00;;
68250;SDS011;55066;51.560;4.642;2024-01-25T02:47:39;13.38;;;2.17;;
68250;SDS011;55066;51.560;4.642;2024-01-25T02:50:05;15.43;;;2.00;;
68250;SDS011;55066;51.560;4.642;2024-01-25T02:52:31;16.30;;;2.05;;
68250;SDS011;55066;51.560;4.642;2024-01-25T02:54:56;17.63;;;2.43;;
68250;SDS011;55066;51.560;4.642;2024-01-25T02:57:22;13.20;;;2.10;;
68250;SDS011;55066;51.560;4.642;2024-01-25T02:59:48;14.00;;;2.28;;
68250;SDS011;55066;51.560;4.642;2024-01-25T03:02:14;16.67;;;2.30;;
68250;SDS011;55066;51.560;4.642;2024-01-25T03:04:42;15.52;;;1.88;;
68250;SDS011;55066;51.560;4.642;2024-01-25T03:07:07;13.38;;;2.13;;
68250;SDS011;55066;51.560;4.642;2024-01-25T03:09:33;11.13;;;1.48;;
68250;SDS011;55066;51.560;4.642;2024-01-25T03:11:58;15.90;;;2.13;;
68250;SDS011;55066;51.560;4.642;2024-01-25T03:14:24;14.88;;;1.73;;
68250;SDS011;55066;51.560;4.642;2024-01-25T03:16:49;13.35;;;2.03;;
68250;SDS011;55066;51.560;4.642;2024-01-25T03:19:15;8.83;;;2.03;;
68250;SDS011;55066;51.560;4.642;2024-01-25T03:21:40;16.27;;;1.83;;
68250;SDS011;55066;51.560;4.642;2024-01-25T03:24:06;12.25;;;1.83;;
68250;SDS011;55066;51.560;4.642;2024-01-25T03:26:31;12.43;;;1.93;;
68250;SDS011;55066;51.560;4.642;2024-01-25T03:28:58;12.25;;;2.10;;
68250;SDS011;55066;51.560;4.642;2024-01-25T03:31:24;12.03;;;2.10;;
68250;SDS011;55066;51.560;4.642;2024-01-25T03:33:49;11.67;;;1.83;;
68250;SDS011;55066;51.560;4.642;2024-01-25T03:36:15;10.80;;;1.83;;
68250;SDS011;55066;51.560;4.642;2024-01-25T03:38:40;15.75;;;2.17;;
68250;SDS011;55066;51.560;4.642;2024-01-25T03:41:06;15.70;;;2.42;;
68250;SDS011;55066;51.560;4.642;2024-01-25T03:43:32;14.80;;;2.03;;
68250;SDS011;55066;51.560;4.642;2024-01-25T03:45:57;12.47;;;1.83;;
68250;SDS011;55066;51.560;4.642;2024-01-25T03:48:23;13.45;;;2.33;;
68250;SDS011;55066;51.560;4.642;2024-01-25T03:50:48;21.15;;;2.30;;
68250;SDS011;55066;51.560;4.642;2024-01-25T03:53:14;18.07;;;1.87;;
68250;SDS011;55066;51.560;4.642;2024-01-25T03:55:40;13.97;;;1.87;;
68250;SDS011;55066;51.560;4.642;2024-01-25T03:58:06;13.57;;;1.90;;
68250;SDS011;55066;51.560;4.642;2024-01-25T04:00:31;16.67;;;2.40;;
68250;SDS011;55066;51.560;4.642;2024-01-25T04:02:57;12.13;;;2.03;;
68250;SDS011;55066;51.560;4.642;2024-01-25T04:05:22;16.07;;;2.07;;
68250;SDS011;55066;51.560;4.642;2024-01-25T04:07:48;12.30;;;1.87;;
68250;SDS011;55066;51.560;4.642;2024-01-25T04:10:13;14.93;;;2.37;;
68250;SDS011;55066;51.560;4.642;2024-01-25T04:12:39;13.98;;;1.45;;
68250;SDS011;55066;51.560;4.642;2024-01-25T04:15:05;16.23;;;2.10;;
68250;SDS011;55066;51.560;4.642;2024-01-25T04:17:31;15.52;;;2.03;;
68250;SDS011;55066;51.560;4.642;2024-01-25T04:19:56;11.52;;;1.85;;
68250;SDS011;55066;51.560;4.642;2024-01-25T04:22:22;17.67;;;1.90;;
68250;SDS011;55066;51.560;4.642;2024-01-25T04:24:47;13.40;;;2.67;;
68250;SDS011;55066;51.560;4.642;2024-01-25T04:27:14;12.40;;;2.50;;
68250;SDS011;55066;51.560;4.642;2024-01-25T04:29:40;14.60;;;2.00;;
68250;SDS011;55066;51.560;4.642;2024-01-25T04:32:10;20.75;;;2.53;;
68250;SDS011;55066;51.560;4.642;2024-01-25T04:34:37;12.85;;;2.17;;
68250;SDS011;55066;51.560;4.642;2024-01-25T04:37:03;6.13;;;1.37;;
68250;SDS011;55066;51.560;4.642;2024-01-25T04:39:28;13.98;;;1.75;;
68250;SDS011;55066;51.560;4.642;2024-01-25T04:41:54;8.60;;;1.97;;
68250;SDS011;55066;51.560;4.642;2024-01-25T04:44:19;18.27;;;2.13;;
68250;SDS011;55066;51.560;4.642;2024-01-25T04:46:44;10.33;;;1.60;;
68250;SDS011;55066;51.560;4.642;2024-01-25T04:49:10;13.73;;;2.40;;
68250;SDS011;55066;51.560;4.642;2024-01-25T04:51:36;11.00;;;1.90;;
68250;SDS011;55066;51.560;4.642;2024-01-25T04:54:01;14.40;;;1.70;;
68250;SDS011;55066;51.560;4.642;2024-01-25T04:56:27;10.60;;;1.60;;
68250;SDS011;55066;51.560;4.642;2024-01-25T04:58:53;11.38;;;2.08;;
68250;SDS011;55066;51.560;4.642;2024-01-25T05:01:19;14.10;;;1.93;;
68250;SDS011;55066;51.560;4.642;2024-01-25T05:03:44;18.53;;;2.80;;
68250;SDS011;55066;51.560;4.642;2024-01-25T05:06:10;14.18;;;2.05;;
68250;SDS011;55066;51.560;4.642;2024-01-25T05:08:35;17.23;;;1.90;;
68250;SDS011;55066;51.560;4.642;2024-01-25T05:11:01;14.67;;;2.30;;
68250;SDS011;55066;51.560;4.642;2024-01-25T05:13:26;7.83;;;1.90;;
68250;SDS011;55066;51.560;4.642;2024-01-25T05:15:52;15.00;;;1.95;;
68250;SDS011;55066;51.560;4.642;2024-01-25T05:18:17;11.73;;;1.77;;
68250;SDS011;55066;51.560;4.642;2024-01-25T05:20:43;15.33;;;2.80;;
68250;SDS011;55066;51.560;4.642;2024-01-25T05:23:08;12.27;;;2.17;;
68250;SDS011;55066;51.560;4.642;2024-01-25T05:25:34;14.70;;;2.00;;
68250;SDS011;55066;51.560;4.642;2024-01-25T05:27:59;13.15;;;1.63;;
68250;SDS011;55066;51.560;4.642;2024-01-25T05:30:25;5.50;;;1.53;;
68250;SDS011;55066;51.560;4.642;2024-01-25T05:32:52;10.77;;;1.98;;
68250;SDS011;55066;51.560;4.642;2024-01-25T05:35:18;14.40;;;1.92;;
68250;SDS011;55066;51.560;4.642;2024-01-25T05:37:44;13.47;;;2.30;;
68250;SDS011;55066;51.560;4.642;2024-01-25T05:40:10;14.70;;;2.53;;
68250;SDS011;55066;51.560;4.642;2024-01-25T05:42:36;17.77;;;2.10;;
68250;SDS011;55066;51.560;4.642;2024-01-25T05:45:02;9.27;;;1.55;;
68250;SDS011;55066;51.560;4.642;2024-01-25T05:47:28;12.32;;;1.92;;
68250;SDS011;55066;51.560;4.642;2024-01-25T05:49:54;6.27;;;1.70;;
68250;SDS011;55066;51.560;4.642;2024-01-25T05:52:20;11.82;;;2.22;;
68250;SDS011;55066;51.560;4.642;2024-01-25T05:54:46;7.23;;;1.90;;
68250;SDS011;55066;51.560;4.642;2024-01-25T05:57:12;13.07;;;2.47;;
68250;SDS011;55066;51.560;4.642;2024-01-25T05:59:37;14.53;;;2.80;;
68250;SDS011;55066;51.560;4.642;2024-01-25T06:02:03;11.07;;;2.57;;
68250;SDS011;55066;51.560;4.642;2024-01-25T06:04:29;12.77;;;1.88;;
68250;SDS011;55066;51.560;4.642;2024-01-25T06:06:54;13.23;;;2.10;;
68250;SDS011;55066;51.560;4.642;2024-01-25T06:09:20;7.05;;;1.80;;
68250;SDS011;55066;51.560;4.642;2024-01-25T06:11:45;13.65;;;2.05;;
68250;SDS011;55066;51.560;4.642;2024-01-25T06:14:11;11.20;;;3.10;;
68250;SDS011;55066;51.560;4.642;2024-01-25T06:16:37;7.07;;;2.08;;
68250;SDS011;55066;51.560;4.642;2024-01-25T06:19:03;11.60;;;2.17;;
68250;SDS011;55066;51.560;4.642;2024-01-25T06:21:28;10.70;;;2.22;;
68250;SDS011;55066;51.560;4.642;2024-01-25T06:23:54;15.07;;;2.97;;
68250;SDS011;55066;51.560;4.642;2024-01-25T06:26:20;12.05;;;2.25;;
68250;SDS011;55066;51.560;4.642;2024-01-25T06:28:46;13.53;;;2.80;;
68250;SDS011;55066;51.560;4.642;2024-01-25T06:31:11;12.15;;;1.85;;
68250;SDS011;55066;51.560;4.642;2024-01-25T06:33:36;12.90;;;2.30;;
68250;SDS011;55066;51.560;4.642;2024-01-25T06:36:02;9.27;;;1.80;;
68250;SDS011;55066;51.560;4.642;2024-01-25T06:38:27;16.17;;;2.23;;
68250;SDS011;55066;51.560;4.642;2024-01-25T06:40:53;13.13;;;2.30;;
68250;SDS011;55066;51.560;4.642;2024-01-25T06:43:18;10.07;;;2.10;;
68250;SDS011;55066;51.560;4.642;2024-01-25T06:45:44;14.77;;;2.47;;
68250;SDS011;55066;51.560;4.642;2024-01-25T06:48:09;11.37;;;2.40;;
68250;SDS011;55066;51.560;4.642;2024-01-25T06:50:35;9.87;;;3.03;;
68250;SDS011;55066;51.560;4.642;2024-01-25T06:53:00;13.65;;;2.75;;
68250;SDS011;55066;51.560;4.642;2024-01-25T06:55:26;12.97;;;2.60;;
68250;SDS011;55066;51.560;4.642;2024-01-25T06:57:51;18.50;;;2.92;;
68250;SDS011;55066;51.560;4.642;2024-01-25T07:00:17;13.80;;;2.90;;
68250;SDS011;55066;51.560;4.642;2024-01-25T07:02:44;17.30;;;2.92;;
68250;SDS011;55066;51.560;4.642;2024-01-25T07:05:09;11.90;;;3.10;;
68250;SDS011;55066;51.560;4.642;2024-01-25T07:07:35;11.35;;;2.78;;
68250;SDS011;55066;51.560;4.642;2024-01-25T07:10:00;18.13;;;3.43;;
68250;SDS011;55066;51.560;4.642;2024-01-25T07:12:26;17.07;;;3.17;;
68250;SDS011;55066;51.560;4.642;2024-01-25T07:14:52;14.60;;;2.40;;
68250;SDS011;55066;51.560;4.642;2024-01-25T07:17:17;9.13;;;2.27;;
68250;SDS011;55066;51.560;4.642;2024-01-25T07:19:43;20.73;;;3.53;;
68250;SDS011;55066;51.560;4.642;2024-01-25T07:22:09;10.27;;;2.07;;
68250;SDS011;55066;51.560;4.642;2024-01-25T07:24:36;16.58;;;3.45;;
68250;SDS011;55066;51.560;4.642;2024-01-25T07:27:02;12.37;;;2.30;;
68250;SDS011;55066;51.560;4.642;2024-01-25T07:29:27;18.35;;;3.42;;
68250;SDS011;55066;51.560;4.642;2024-01-25T07:31:54;13.90;;;3.17;;
68250;SDS011;55066;51.560;4.642;2024-01-25T07:34:19;17.23;;;3.30;;
68250;SDS011;55066;51.560;4.642;2024-01-25T07:36:45;17.30;;;3.50;;
68250;SDS011;55066;51.560;4.642;2024-01-25T07:39:10;15.17;;;3.40;;
68250;SDS011;55066;51.560;4.642;2024-01-25T07:41:36;19.13;;;3.72;;
68250;SDS011;55066;51.560;4.642;2024-01-25T07:44:02;17.53;;;3.20;;
68250;SDS011;55066;51.560;4.642;2024-01-25T07:46:27;20.13;;;3.27;;
68250;SDS011;55066;51.560;4.642;2024-01-25T07:48:53;12.15;;;3.03;;
68250;SDS011;55066;51.560;4.642;2024-01-25T07:51:18;15.73;;;2.78;;
68250;SDS011;55066;51.560;4.642;2024-01-25T07:53:44;15.47;;;4.00;;
68250;SDS011;55066;51.560;4.642;2024-01-25T07:56:09;14.13;;;2.50;;
68250;SDS011;55066;51.560;4.642;2024-01-25T07:58:36;12.93;;;2.93;;
68250;SDS011;55066;51.560;4.642;2024-01-25T08:01:03;22.55;;;3.33;;
68250;SDS011;55066;51.560;4.642;2024-01-25T08:03:30;13.75;;;3.42;;
68250;SDS011;55066;51.560;4.642;2024-01-25T08:05:55;17.30;;;3.40;;
68250;SDS011;55066;51.560;4.642;2024-01-25T08:08:20;20.23;;;3.60;;
68250;SDS011;55066;51.560;4.642;2024-01-25T08:10:46;15.25;;;3.03;;
68250;SDS011;55066;51.560;4.642;2024-01-25T08:13:12;13.67;;;3.23;;
68250;SDS011;55066;51.560;4.642;2024-01-25T08:15:37;19.10;;;3.70;;
68250;SDS011;55066;51.560;4.642;2024-01-25T08:18:03;15.40;;;3.70;;
68250;SDS011;55066;51.560;4.642;2024-01-25T08:20:29;18.38;;;3.72;;
68250;SDS011;55066;51.560;4.642;2024-01-25T08:22:54;21.70;;;3.80;;
68250;SDS011;55066;51.560;4.642;2024-01-25T08:25:19;23.40;;;3.77;;
68250;SDS011;55066;51.560;4.642;2024-01-25T08:27:45;20.37;;;4.07;;
68250;SDS011;55066;51.560;4.642;2024-01-25T08:30:12;25.25;;;3.55;;
68250;SDS011;55066;51.560;4.642;2024-01-25T08:32:38;16.07;;;3.60;;
68250;SDS011;55066;51.560;4.642;2024-01-25T08:35:03;18.45;;;3.80;;
68250;SDS011;55066;51.560;4.642;2024-01-25T08:37:29;18.85;;;3.30;;
68250;SDS011;55066;51.560;4.642;2024-01-25T08:39:55;18.52;;;3.97;;
68250;SDS011;55066;51.560;4.642;2024-01-25T08:42:20;19.17;;;4.17;;
68250;SDS011;55066;51.560;4.642;2024-01-25T08:44:46;21.87;;;3.80;;
68250;SDS011;55066;51.560;4.642;2024-01-25T08:47:15;22.45;;;3.42;;
68250;SDS011;55066;51.560;4.642;2024-01-25T08:49:42;18.98;;;3.97;;
68250;SDS011;55066;51.560;4.642;2024-01-25T08:52:07;23.33;;;3.70;;
68250;SDS011;55066;51.560;4.642;2024-01-25T08:54:32;18.27;;;4.30;;
68250;SDS011;55066;51.560;4.642;2024-01-25T08:56:59;17.17;;;4.53;;
68250;SDS011;55066;51.560;4.642;2024-01-25T08:59:24;17.33;;;4.78;;
68250;SDS011;55066;51.560;4.642;2024-01-25T09:01:51;29.20;;;4.77;;
68250;SDS011;55066;51.560;4.642;2024-01-25T09:04:17;20.52;;;4.47;;
68250;SDS011;55066;51.560;4.642;2024-01-25T09:06:43;26.10;;;4.40;;
68250;SDS011;55066;51.560;4.642;2024-01-25T09:09:09;24.88;;;4.35;;
68250;SDS011;55066;51.560;4.642;2024-01-25T09:11:36;23.02;;;4.47;;
68250;SDS011;55066;51.560;4.642;2024-01-25T09:14:01;22.10;;;4.50;;
68250;SDS011;55066;51.560;4.642;2024-01-25T09:16:27;19.97;;;4.53;;
68250;SDS011;55066;51.560;4.642;2024-01-25T09:18:52;36.60;;;5.93;;
68250;SDS011;55066;51.560;4.642;2024-01-25T09:21:18;19.37;;;4.63;;
68250;SDS011;55066;51.560;4.642;2024-01-25T09:23:43;23.90;;;5.70;;
68250;SDS011;55066;51.560;4.642;2024-01-25T09:26:08;22.10;;;5.57;;
68250;SDS011;55066;51.560;4.642;2024-01-25T09:28:34;25.93;;;5.33;;
68250;SDS011;55066;51.560;4.642;2024-01-25T09:30:59;28.43;;;4.83;;
68250;SDS011;55066;51.560;4.642;2024-01-25T09:33:25;29.83;;;5.78;;
68250;SDS011;55066;51.560;4.642;2024-01-25T09:35:50;30.80;;;6.00;;
68250;SDS011;55066;51.560;4.642;2024-01-25T09:38:16;25.43;;;6.27;;
68250;SDS011;55066;51.560;4.642;2024-01-25T09:40:42;22.63;;;5.95;;
68250;SDS011;55066;51.560;4.642;2024-01-25T09:43:07;26.73;;;5.73;;
68250;SDS011;55066;51.560;4.642;2024-01-25T09:45:33;32.35;;;5.97;;
68250;SDS011;55066;51.560;4.642;2024-01-25T09:48:00;32.00;;;5.80;;
68250;SDS011;55066;51.560;4.642;2024-01-25T09:50:29;24.88;;;5.95;;
68250;SDS011;55066;51.560;4.642;2024-01-25T09:52:59;30.17;;;6.53;;
68250;SDS011;55066;51.560;4.642;2024-01-25T09:55:25;33.25;;;6.20;;
68250;SDS011;55066;51.560;4.642;2024-01-25T09:57:55;27.37;;;6.50;;
68250;SDS011;55066;51.560;4.642;2024-01-25T10:00:21;27.45;;;6.32;;
68250;SDS011;55066;51.560;4.642;2024-01-25T10:02:48;23.23;;;6.47;;
68250;SDS011;55066;51.560;4.642;2024-01-25T10:05:17;28.23;;;6.72;;
68250;SDS011;55066;51.560;4.642;2024-01-25T10:07:44;34.15;;;7.15;;
68250;SDS011;55066;51.560;4.642;2024-01-25T10:10:11;38.87;;;7.60;;
68250;SDS011;55066;51.560;4.642;2024-01-25T10:12:37;43.85;;;8.48;;
68250;SDS011;55066;51.560;4.642;2024-01-25T10:15:04;36.83;;;8.23;;
68250;SDS011;55066;51.560;4.642;2024-01-25T10:17:30;37.13;;;8.23;;
68250;SDS011;55066;51.560;4.642;2024-01-25T10:19:55;34.53;;;7.68;;
68250;SDS011;55066;51.560;4.642;2024-01-25T10:22:21;44.83;;;8.80;;
68250;SDS011;55066;51.560;4.642;2024-01-25T10:24:48;35.50;;;7.47;;
68250;SDS011;55066;51.560;4.642;2024-01-25T10:27:18;40.50;;;8.07;;
68250;SDS011;55066;51.560;4.642;2024-01-25T10:29:43;36.97;;;7.40;;
68250;SDS011;55066;51.560;4.642;2024-01-25T10:32:09;38.53;;;7.50;;
68250;SDS011;55066;51.560;4.642;2024-01-25T10:34:35;32.50;;;6.45;;
68250;SDS011;55066;51.560;4.642;2024-01-25T10:37:05;39.05;;;7.05;;
68250;SDS011;55066;51.560;4.642;2024-01-25T10:39:32;31.50;;;6.77;;
68250;SDS011;55066;51.560;4.642;2024-01-25T10:41:59;41.67;;;7.10;;
68250;SDS011;55066;51.560;4.642;2024-01-25T10:44:26;38.83;;;6.53;;
68250;SDS011;55066;51.560;4.642;2024-01-25T10:46:52;45.75;;;8.60;;
68250;SDS011;55066;51.560;4.642;2024-01-25T10:49:19;45.50;;;8.43;;
68250;SDS011;55066;51.560;4.642;2024-01-25T10:51:45;38.50;;;7.37;;
68250;SDS011;55066;51.560;4.642;2024-01-25T10:54:12;31.98;;;7.05;;
68250;SDS011;55066;51.560;4.642;2024-01-25T10:56:42;40.92;;;7.70;;
68250;SDS011;55066;51.560;4.642;2024-01-25T10:59:08;33.72;;;6.57;;
68250;SDS011;55066;51.560;4.642;2024-01-25T11:01:36;39.47;;;7.27;;
68250;SDS011;55066;51.560;4.642;2024-01-25T11:04:01;38.30;;;6.55;;
68250;SDS011;55066;51.560;4.642;2024-01-25T11:06:27;35.40;;;6.57;;
68250;SDS011;55066;51.560;4.642;2024-01-25T11:09:05;50.25;;;7.57;;
68250;SDS011;55066;51.560;4.642;2024-01-25T11:11:32;41.08;;;7.22;;
68250;SDS011;55066;51.560;4.642;2024-01-25T11:13:58;41.77;;;6.87;;
68250;SDS011;55066;51.560;4.642;2024-01-25T11:16:28;47.78;;;8.10;;
68250;SDS011;55066;51.560;4.642;2024-01-25T11:18:55;26.90;;;6.03;;
68250;SDS011;55066;51.560;4.642;2024-01-25T11:21:46;38.42;;;7.75;;
68250;SDS011;55066;51.560;4.642;2024-01-25T11:24:13;43.38;;;7.95;;
68250;SDS011;55066;51.560;4.642;2024-01-25T11:27:00;47.17;;;8.15;;
68250;SDS011;55066;51.560;4.642;2024-01-25T11:29:25;39.70;;;7.32;;
68250;SDS011;55066;51.560;4.642;2024-01-25T11:31:52;41.53;;;8.07;;
68250;SDS011;55066;51.560;4.642;2024-01-25T11:34:18;45.88;;;7.50;;
68250;SDS011;55066;51.560;4.642;2024-01-25T11:36:44;46.67;;;7.38;;
68250;SDS011;55066;51.560;4.642;2024-01-25T11:39:13;42.97;;;8.10;;
68250;SDS011;55066;51.560;4.642;2024-01-25T11:41:40;42.53;;;8.07;;
68250;SDS011;55066;51.560;4.642;2024-01-25T11:44:09;40.03;;;7.85;;
68250;SDS011;55066;51.560;4.642;2024-01-25T11:46:35;47.38;;;8.15;;
68250;SDS011;55066;51.560;4.642;2024-01-25T11:49:00;40.90;;;7.43;;
68250;SDS011;55066;51.560;4.642;2024-01-25T11:51:27;38.03;;;7.60;;
68250;SDS011;55066;51.560;4.642;2024-01-25T11:53:52;35.70;;;8.03;;
68250;SDS011;55066;51.560;4.642;2024-01-25T11:56:19;49.47;;;7.50;;
68250;SDS011;55066;51.560;4.642;2024-01-25T11:58:48;41.95;;;6.35;;
68250;SDS011;55066;51.560;4.642;2024-01-25T12:01:14;31.35;;;6.00;;
68250;SDS011;55066;51.560;4.642;2024-01-25T12:03:41;38.00;;;5.78;;
68250;SDS011;55066;51.560;4.642;2024-01-25T12:06:07;28.40;;;5.93;;
68250;SDS011;55066;51.560;4.642;2024-01-25T12:08:35;24.35;;;4.90;;
68250;SDS011;55066;51.560;4.642;2024-01-25T12:11:08;24.27;;;5.67;;
68250;SDS011;55066;51.560;4.642;2024-01-25T12:13:41;32.85;;;5.63;;
68250;SDS011;55066;51.560;4.642;2024-01-25T12:16:08;35.40;;;5.50;;
68250;SDS011;55066;51.560;4.642;2024-01-25T12:18:34;25.33;;;5.45;;
68250;SDS011;55066;51.560;4.642;2024-01-25T12:21:03;33.33;;;5.10;;
68250;SDS011;55066;51.560;4.642;2024-01-25T12:23:39;27.92;;;5.85;;
68250;SDS011;55066;51.560;4.642;2024-01-25T12:26:10;26.65;;;5.18;;
68250;SDS011;55066;51.560;4.642;2024-01-25T12:28:36;28.75;;;5.35;;
68250;SDS011;55066;51.560;4.642;2024-01-25T12:31:03;26.60;;;5.68;;
68250;SDS011;55066;51.560;4.642;2024-01-25T12:33:30;25.87;;;5.47;;
68250;SDS011;55066;51.560;4.642;2024-01-25T12:35:56;25.58;;;5.90;;
68250;SDS011;55066;51.560;4.642;2024-01-25T12:38:23;31.75;;;6.63;;
68250;SDS011;55066;51.560;4.642;2024-01-25T12:40:50;33.60;;;6.32;;
68250;SDS011;55066;51.560;4.642;2024-01-25T12:43:16;31.23;;;6.65;;
68250;SDS011;55066;51.560;4.642;2024-01-25T12:45:42;31.27;;;6.97;;
68250;SDS011;55066;51.560;4.642;2024-01-25T12:48:08;32.58;;;8.38;;
68250;SDS011;55066;51.560;4.642;2024-01-25T12:50:34;34.00;;;7.23;;
68250;SDS011;55066;51.560;4.642;2024-01-25T12:53:00;33.33;;;7.25;;
68250;SDS011;55066;51.560;4.642;2024-01-25T12:55:27;30.17;;;6.93;;
68250;SDS011;55066;51.560;4.642;2024-01-25T12:57:54;32.30;;;8.05;;
68250;SDS011;55066;51.560;4.642;2024-01-25T13:00:20;31.23;;;7.63;;
68250;SDS011;55066;51.560;4.642;2024-01-25T13:02:47;28.80;;;7.35;;
68250;SDS011;55066;51.560;4.642;2024-01-25T13:05:12;33.47;;;8.68;;
68250;SDS011;55066;51.560;4.642;2024-01-25T13:07:38;34.20;;;8.13;;
68250;SDS011;55066;51.560;4.642;2024-01-25T13:10:04;31.63;;;7.97;;
68250;SDS011;55066;51.560;4.642;2024-01-25T13:12:29;38.60;;;8.25;;
68250;SDS011;55066;51.560;4.642;2024-01-25T13:14:55;32.60;;;8.48;;
68250;SDS011;55066;51.560;4.642;2024-01-25T13:17:21;30.17;;;8.83;;
68250;SDS011;55066;51.560;4.642;2024-01-25T13:19:48;36.95;;;8.23;;
68250;SDS011;55066;51.560;4.642;2024-01-25T13:22:13;28.50;;;7.83;;
68250;SDS011;55066;51.560;4.642;2024-01-25T13:24:39;34.77;;;7.83;;
68250;SDS011;55066;51.560;4.642;2024-01-25T13:27:05;29.10;;;8.83;;
68250;SDS011;55066;51.560;4.642;2024-01-25T13:29:30;33.80;;;7.93;;
68250;SDS011;55066;51.560;4.642;2024-01-25T13:31:55;29.63;;;7.90;;
68250;SDS011;55066;51.560;4.642;2024-01-25T13:34:21;39.88;;;8.35;;
68250;SDS011;55066;51.560;4.642;2024-01-25T13:36:46;34.00;;;8.77;;
68250;SDS011;55066;51.560;4.642;2024-01-25T13:39:12;33.87;;;9.17;;
68250;SDS011;55066;51.560;4.642;2024-01-25T13:41:37;39.57;;;9.30;;
68250;SDS011;55066;51.560;4.642;2024-01-25T13:44:03;46.95;;;9.02;;
68250;SDS011;55066;51.560;4.642;2024-01-25T13:46:28;41.00;;;9.70;;
68250;SDS011;55066;51.560;4.642;2024-01-25T13:48:54;46.13;;;9.80;;
68250;SDS011;55066;51.560;4.642;2024-01-25T13:51:19;36.70;;;9.10;;
68250;SDS011;55066;51.560;4.642;2024-01-25T13:53:45;40.85;;;10.02;;
68250;SDS011;55066;51.560;4.642;2024-01-25T13:56:11;51.60;;;9.97;;
68250;SDS011;55066;51.560;4.642;2024-01-25T13:58:37;44.40;;;9.82;;
68250;SDS011;55066;51.560;4.642;2024-01-25T14:01:02;39.07;;;9.73;;
68250;SDS011;55066;51.560;4.642;2024-01-25T14:03:30;41.60;;;9.70;;
68250;SDS011;55066;51.560;4.642;2024-01-25T14:05:56;41.40;;;10.67;;
68250;SDS011;55066;51.560;4.642;2024-01-25T14:08:22;50.40;;;11.57;;
68250;SDS011;55066;51.560;4.642;2024-01-25T14:10:48;45.50;;;9.73;;
68250;SDS011;55066;51.560;4.642;2024-01-25T14:13:13;45.53;;;10.20;;
68250;SDS011;55066;51.560;4.642;2024-01-25T14:15:39;45.90;;;9.63;;
68250;SDS011;55066;51.560;4.642;2024-01-25T14:18:04;49.80;;;11.90;;
68250;SDS011;55066;51.560;4.642;2024-01-25T14:20:30;41.75;;;9.63;;
68250;SDS011;55066;51.560;4.642;2024-01-25T14:22:55;46.87;;;11.37;;
68250;SDS011;55066;51.560;4.642;2024-01-25T14:25:21;49.93;;;10.67;;
68250;SDS011;55066;51.560;4.642;2024-01-25T14:27:46;44.88;;;11.63;;
68250;SDS011;55066;51.560;4.642;2024-01-25T14:30:13;47.33;;;10.75;;